sensor_id;sensor_type;location;lat;lon;timestamp;P1;durP1;ratioP1;P2;durP2;ratioP2
24739;SDS011;45234;48.148;17.128;2023-06-22T00:00:01;10.32;;;5.18;;
24739;SDS011;45234;48.148;17.128;2023-06-22T00:02:37;13.50;;;6.10;;
24739;SDS011;45234;48.148;17.128;2023-06-22T00:05:04;17.67;;;6.40;;
24739;SDS011;45234;48.148;17.128;2023-06-22T00:07:31;19.85;;;7.35;;
24739;SDS011;45234;48.148;17.128;2023-06-22T00:09:58;12.25;;;6.72;;
24739;SDS011;45234;48.148;17.128;2023-06-22T00:12:25;14.73;;;6.47;;
24739;SDS011;45234;48.148;17.128;2023-06-22T00:14:52;12.00;;;7.10;;
24739;SDS011;45234;48.148;17.128;2023-06-22T00:17:19;10.10;;;6.60;;
24739;SDS011;45234;48.148;17.128;2023-06-22T00:19:49;14.52;;;6.53;;
24739;SDS011;45234;48.148;17.128;2023-06-22T00:22:22;15.38;;;6.95;;
24739;SDS011;45234;48.148;17.128;2023-06-22T00:24:55;12.85;;;6.10;;
24739;SDS011;45234;48.148;17.128;2023-06-22T00:27:22;11.38;;;6.45;;
24739;SDS011;45234;48.148;17.128;2023-06-22T00:29:49;13.70;;;6.60;;
24739;SDS011;45234;48.148;17.128;2023-06-22T00:32:16;12.55;;;6.55;;
24739;SDS011;45234;48.148;17.128;2023-06-22T00:34:46;13.98;;;6.53;;
24739;SDS011;45234;48.148;17.128;2023-06-22T00:37:13;10.30;;;6.00;;
24739;SDS011;45234;48.148;17.128;2023-06-22T00:39:40;15.20;;;6.72;;
24739;SDS011;45234;48.148;17.128;2023-06-22T00:42:10;15.73;;;6.85;;
24739;SDS011;45234;48.148;17.128;2023-06-22T00:44:37;16.25;;;6.95;;
24739;SDS011;45234;48.148;17.128;2023-06-22T00:47:04;14.35;;;6.93;;
24739;SDS011;45234;48.148;17.128;2023-06-22T00:49:32;14.50;;;6.90;;
24739;SDS011;45234;48.148;17.128;2023-06-22T00:51:59;14.15;;;6.18;;
24739;SDS011;45234;48.148;17.128;2023-06-22T00:54:28;11.52;;;6.65;;
24739;SDS011;45234;48.148;17.128;2023-06-22T00:56:55;12.45;;;7.80;;
24739;SDS011;45234;48.148;17.128;2023-06-22T00:59:23;13.57;;;6.97;;
24739;SDS011;45234;48.148;17.128;2023-06-22T01:01:52;15.88;;;7.68;;
24739;SDS011;45234;48.148;17.128;2023-06-22T01:04:19;17.85;;;8.50;;
24739;SDS011;45234;48.148;17.128;2023-06-22T01:06:53;15.20;;;7.63;;
24739;SDS011;45234;48.148;17.128;2023-06-22T01:12:01;18.17;;;9.65;;
24739;SDS011;45234;48.148;17.128;2023-06-22T01:17:04;17.92;;;9.45;;
24739;SDS011;45234;48.148;17.128;2023-06-22T01:22:03;16.20;;;9.02;;
24739;SDS011;45234;48.148;17.128;2023-06-22T01:24:45;16.50;;;9.07;;
24739;SDS011;45234;48.148;17.128;2023-06-22T01:30:27;12.73;;;8.00;;
24739;SDS011;45234;48.148;17.128;2023-06-22T01:32:57;11.68;;;8.30;;
24739;SDS011;45234;48.148;17.128;2023-06-22T01:35:24;14.40;;;8.45;;
24739;SDS011;45234;48.148;17.128;2023-06-22T01:37:52;16.02;;;7.85;;
24739;SDS011;45234;48.148;17.128;2023-06-22T01:40:19;11.85;;;7.80;;
24739;SDS011;45234;48.148;17.128;2023-06-22T01:42:50;14.43;;;7.35;;
24739;SDS011;45234;48.148;17.128;2023-06-22T01:45:17;15.85;;;7.80;;
24739;SDS011;45234;48.148;17.128;2023-06-22T01:47:45;12.75;;;7.20;;
24739;SDS011;45234;48.148;17.128;2023-06-22T01:50:12;14.88;;;7.80;;
24739;SDS011;45234;48.148;17.128;2023-06-22T01:52:39;15.80;;;7.30;;
24739;SDS011;45234;48.148;17.128;2023-06-22T01:55:06;13.25;;;7.15;;
24739;SDS011;45234;48.148;17.128;2023-06-22T01:57:34;12.65;;;7.40;;
24739;SDS011;45234;48.148;17.128;2023-06-22T02:00:04;10.45;;;6.60;;
24739;SDS011;45234;48.148;17.128;2023-06-22T02:03:17;17.20;;;7.00;;
24739;SDS011;45234;48.148;17.128;2023-06-22T02:05:55;10.93;;;6.68;;
24739;SDS011;45234;48.148;17.128;2023-06-22T02:08:33;13.68;;;6.90;;
24739;SDS011;45234;48.148;17.128;2023-06-22T02:11:16;12.43;;;6.50;;
24739;SDS011;45234;48.148;17.128;2023-06-22T02:13:46;13.68;;;6.32;;
24739;SDS011;45234;48.148;17.128;2023-06-22T02:16:14;13.15;;;6.47;;
24739;SDS011;45234;48.148;17.128;2023-06-22T02:18:46;11.85;;;5.90;;
24739;SDS011;45234;48.148;17.128;2023-06-22T02:21:21;14.73;;;6.35;;
24739;SDS011;45234;48.148;17.128;2023-06-22T02:23:49;12.15;;;6.22;;
24739;SDS011;45234;48.148;17.128;2023-06-22T02:26:17;10.75;;;6.60;;
24739;SDS011;45234;48.148;17.128;2023-06-22T02:28:44;12.02;;;6.00;;
24739;SDS011;45234;48.148;17.128;2023-06-22T02:31:11;12.70;;;6.38;;
24739;SDS011;45234;48.148;17.128;2023-06-22T02:33:38;11.88;;;6.25;;
24739;SDS011;45234;48.148;17.128;2023-06-22T02:36:06;11.60;;;6.30;;
24739;SDS011;45234;48.148;17.128;2023-06-22T02:38:35;9.38;;;6.43;;
24739;SDS011;45234;48.148;17.128;2023-06-22T02:41:02;11.85;;;5.97;;
24739;SDS011;45234;48.148;17.128;2023-06-22T02:43:29;14.63;;;6.50;;
24739;SDS011;45234;48.148;17.128;2023-06-22T02:45:56;12.60;;;6.07;;
24739;SDS011;45234;48.148;17.128;2023-06-22T02:48:23;13.75;;;7.45;;
24739;SDS011;45234;48.148;17.128;2023-06-22T02:50:51;14.40;;;7.00;;
24739;SDS011;45234;48.148;17.128;2023-06-22T02:53:18;12.82;;;5.90;;
24739;SDS011;45234;48.148;17.128;2023-06-22T02:55:45;10.68;;;5.90;;
24739;SDS011;45234;48.148;17.128;2023-06-22T02:58:12;11.05;;;5.93;;
24739;SDS011;45234;48.148;17.128;2023-06-22T03:00:40;11.40;;;5.40;;
24739;SDS011;45234;48.148;17.128;2023-06-22T03:03:07;10.65;;;5.65;;
24739;SDS011;45234;48.148;17.128;2023-06-22T03:05:34;11.02;;;5.47;;
24739;SDS011;45234;48.148;17.128;2023-06-22T03:08:01;9.00;;;4.90;;
24739;SDS011;45234;48.148;17.128;2023-06-22T03:10:31;7.95;;;4.57;;
24739;SDS011;45234;48.148;17.128;2023-06-22T03:12:58;8.88;;;5.40;;
24739;SDS011;45234;48.148;17.128;2023-06-22T03:15:25;11.23;;;5.88;;
24739;SDS011;45234;48.148;17.128;2023-06-22T03:17:55;7.80;;;5.03;;
24739;SDS011;45234;48.148;17.128;2023-06-22T03:20:23;10.18;;;4.75;;
24739;SDS011;45234;48.148;17.128;2023-06-22T03:22:51;13.50;;;5.03;;
24739;SDS011;45234;48.148;17.128;2023-06-22T03:25:19;8.80;;;5.57;;
24739;SDS011;45234;48.148;17.128;2023-06-22T03:27:48;9.75;;;5.10;;
24739;SDS011;45234;48.148;17.128;2023-06-22T03:30:15;9.57;;;4.45;;
24739;SDS011;45234;48.148;17.128;2023-06-22T03:32:44;9.52;;;4.82;;
24739;SDS011;45234;48.148;17.128;2023-06-22T03:35:13;10.77;;;4.28;;
24739;SDS011;45234;48.148;17.128;2023-06-22T03:37:40;9.52;;;4.40;;
24739;SDS011;45234;48.148;17.128;2023-06-22T03:40:07;9.68;;;4.40;;
24739;SDS011;45234;48.148;17.128;2023-06-22T03:42:34;8.55;;;4.90;;
24739;SDS011;45234;48.148;17.128;2023-06-22T03:45:02;9.55;;;4.85;;
24739;SDS011;45234;48.148;17.128;2023-06-22T03:47:33;8.93;;;4.93;;
24739;SDS011;45234;48.148;17.128;2023-06-22T03:50:02;9.70;;;4.10;;
24739;SDS011;45234;48.148;17.128;2023-06-22T03:52:33;8.55;;;5.00;;
24739;SDS011;45234;48.148;17.128;2023-06-22T03:55:00;11.00;;;5.75;;
24739;SDS011;45234;48.148;17.128;2023-06-22T03:57:31;9.68;;;6.05;;
24739;SDS011;45234;48.148;17.128;2023-06-22T03:59:58;10.68;;;5.78;;
24739;SDS011;45234;48.148;17.128;2023-06-22T04:02:26;10.13;;;5.45;;
24739;SDS011;45234;48.148;17.128;2023-06-22T04:04:53;12.50;;;5.55;;
24739;SDS011;45234;48.148;17.128;2023-06-22T04:07:20;13.30;;;5.85;;
24739;SDS011;45234;48.148;17.128;2023-06-22T04:09:47;11.70;;;5.93;;
24739;SDS011;45234;48.148;17.128;2023-06-22T04:12:14;11.35;;;6.00;;
24739;SDS011;45234;48.148;17.128;2023-06-22T04:14:42;10.93;;;5.85;;
24739;SDS011;45234;48.148;17.128;2023-06-22T04:17:09;13.70;;;5.90;;
24739;SDS011;45234;48.148;17.128;2023-06-22T04:19:35;13.82;;;6.32;;
24739;SDS011;45234;48.148;17.128;2023-06-22T04:22:02;11.10;;;5.72;;
24739;SDS011;45234;48.148;17.128;2023-06-22T04:24:29;10.85;;;6.50;;
24739;SDS011;45234;48.148;17.128;2023-06-22T04:26:57;8.68;;;6.10;;
24739;SDS011;45234;48.148;17.128;2023-06-22T04:29:31;12.95;;;6.57;;
24739;SDS011;45234;48.148;17.128;2023-06-22T04:31:58;13.50;;;5.97;;
24739;SDS011;45234;48.148;17.128;2023-06-22T04:34:29;11.27;;;5.68;;
24739;SDS011;45234;48.148;17.128;2023-06-22T04:36:56;12.93;;;6.10;;
24739;SDS011;45234;48.148;17.128;2023-06-22T04:39:23;15.82;;;6.63;;
24739;SDS011;45234;48.148;17.128;2023-06-22T04:41:50;11.32;;;5.93;;
24739;SDS011;45234;48.148;17.128;2023-06-22T04:44:17;13.93;;;6.55;;
24739;SDS011;45234;48.148;17.128;2023-06-22T04:46:51;15.00;;;7.05;;
24739;SDS011;45234;48.148;17.128;2023-06-22T04:49:20;15.13;;;8.68;;
24739;SDS011;45234;48.148;17.128;2023-06-22T04:51:47;19.20;;;8.13;;
24739;SDS011;45234;48.148;17.128;2023-06-22T04:54:17;12.02;;;8.20;;
24739;SDS011;45234;48.148;17.128;2023-06-22T04:56:44;14.85;;;8.68;;
24739;SDS011;45234;48.148;17.128;2023-06-22T04:59:12;20.52;;;11.10;;
24739;SDS011;45234;48.148;17.128;2023-06-22T05:01:40;18.17;;;10.18;;
24739;SDS011;45234;48.148;17.128;2023-06-22T05:04:08;18.02;;;11.30;;
24739;SDS011;45234;48.148;17.128;2023-06-22T05:06:35;17.40;;;10.60;;
24739;SDS011;45234;48.148;17.128;2023-06-22T05:09:05;14.57;;;10.38;;
24739;SDS011;45234;48.148;17.128;2023-06-22T05:11:32;16.55;;;11.23;;
24739;SDS011;45234;48.148;17.128;2023-06-22T05:13:59;16.63;;;10.65;;
24739;SDS011;45234;48.148;17.128;2023-06-22T05:16:26;17.02;;;11.40;;
24739;SDS011;45234;48.148;17.128;2023-06-22T05:18:53;19.48;;;9.00;;
24739;SDS011;45234;48.148;17.128;2023-06-22T05:21:24;12.32;;;7.22;;
24739;SDS011;45234;48.148;17.128;2023-06-22T05:23:52;13.38;;;8.80;;
24739;SDS011;45234;48.148;17.128;2023-06-22T05:26:20;15.60;;;10.30;;
24739;SDS011;45234;48.148;17.128;2023-06-22T05:28:47;19.85;;;10.90;;
24739;SDS011;45234;48.148;17.128;2023-06-22T05:31:15;17.92;;;9.85;;
24739;SDS011;45234;48.148;17.128;2023-06-22T05:33:43;15.15;;;8.20;;
24739;SDS011;45234;48.148;17.128;2023-06-22T05:36:10;10.00;;;7.60;;
24739;SDS011;45234;48.148;17.128;2023-06-22T05:38:38;16.35;;;6.45;;
24739;SDS011;45234;48.148;17.128;2023-06-22T05:41:05;15.10;;;6.18;;
24739;SDS011;45234;48.148;17.128;2023-06-22T05:43:33;10.93;;;5.07;;
24739;SDS011;45234;48.148;17.128;2023-06-22T05:46:01;13.30;;;5.03;;
24739;SDS011;45234;48.148;17.128;2023-06-22T05:48:31;6.68;;;4.35;;
24739;SDS011;45234;48.148;17.128;2023-06-22T05:50:58;10.20;;;4.50;;
24739;SDS011;45234;48.148;17.128;2023-06-22T05:53:25;9.98;;;3.95;;
24739;SDS011;45234;48.148;17.128;2023-06-22T05:55:52;10.00;;;4.20;;
24739;SDS011;45234;48.148;17.128;2023-06-22T05:58:19;9.30;;;4.40;;
24739;SDS011;45234;48.148;17.128;2023-06-22T06:00:46;10.82;;;4.40;;
24739;SDS011;45234;48.148;17.128;2023-06-22T06:03:13;10.07;;;4.60;;
24739;SDS011;45234;48.148;17.128;2023-06-22T06:05:43;9.80;;;5.03;;
24739;SDS011;45234;48.148;17.128;2023-06-22T06:08:11;10.23;;;5.20;;
24739;SDS011;45234;48.148;17.128;2023-06-22T06:10:38;11.93;;;5.65;;
24739;SDS011;45234;48.148;17.128;2023-06-22T06:13:05;11.63;;;5.05;;
24739;SDS011;45234;48.148;17.128;2023-06-22T06:15:33;9.65;;;5.03;;
24739;SDS011;45234;48.148;17.128;2023-06-22T06:18:00;9.10;;;5.68;;
24739;SDS011;45234;48.148;17.128;2023-06-22T06:20:30;14.05;;;5.00;;
24739;SDS011;45234;48.148;17.128;2023-06-22T06:22:58;8.35;;;5.07;;
24739;SDS011;45234;48.148;17.128;2023-06-22T06:25:25;10.23;;;4.80;;
24739;SDS011;45234;48.148;17.128;2023-06-22T06:27:53;13.50;;;5.18;;
24739;SDS011;45234;48.148;17.128;2023-06-22T06:30:20;9.85;;;5.28;;
24739;SDS011;45234;48.148;17.128;2023-06-22T06:32:48;9.05;;;4.97;;
24739;SDS011;45234;48.148;17.128;2023-06-22T06:35:16;11.52;;;4.60;;
24739;SDS011;45234;48.148;17.128;2023-06-22T06:37:45;7.18;;;4.10;;
24739;SDS011;45234;48.148;17.128;2023-06-22T06:40:14;11.38;;;4.85;;
24739;SDS011;45234;48.148;17.128;2023-06-22T06:42:44;10.32;;;4.97;;
24739;SDS011;45234;48.148;17.128;2023-06-22T06:45:12;8.82;;;4.95;;
24739;SDS011;45234;48.148;17.128;2023-06-22T06:47:44;7.45;;;4.90;;
24739;SDS011;45234;48.148;17.128;2023-06-22T06:50:11;10.32;;;5.20;;
24739;SDS011;45234;48.148;17.128;2023-06-22T06:52:38;10.05;;;4.97;;
24739;SDS011;45234;48.148;17.128;2023-06-22T06:55:06;8.02;;;5.93;;
24739;SDS011;45234;48.148;17.128;2023-06-22T06:57:38;9.32;;;6.07;;
24739;SDS011;45234;48.148;17.128;2023-06-22T07:00:06;8.43;;;5.03;;
24739;SDS011;45234;48.148;17.128;2023-06-22T07:05:05;19.42;;;5.50;;
24739;SDS011;45234;48.148;17.128;2023-06-22T07:07:33;10.38;;;4.95;;
24739;SDS011;45234;48.148;17.128;2023-06-22T07:10:03;13.18;;;7.97;;
24739;SDS011;45234;48.148;17.128;2023-06-22T07:12:31;14.48;;;5.57;;
24739;SDS011;45234;48.148;17.128;2023-06-22T07:15:02;12.70;;;5.50;;
24739;SDS011;45234;48.148;17.128;2023-06-22T07:17:31;12.18;;;5.85;;
24739;SDS011;45234;48.148;17.128;2023-06-22T07:19:58;11.32;;;6.95;;
24739;SDS011;45234;48.148;17.128;2023-06-22T07:22:28;10.45;;;5.68;;
24739;SDS011;45234;48.148;17.128;2023-06-22T07:24:56;13.07;;;6.20;;
24739;SDS011;45234;48.148;17.128;2023-06-22T07:27:22;10.95;;;5.90;;
24739;SDS011;45234;48.148;17.128;2023-06-22T07:29:50;11.70;;;6.57;;
24739;SDS011;45234;48.148;17.128;2023-06-22T07:32:17;12.85;;;6.13;;
24739;SDS011;45234;48.148;17.128;2023-06-22T07:34:44;13.30;;;5.80;;
24739;SDS011;45234;48.148;17.128;2023-06-22T07:37:11;10.35;;;7.03;;
24739;SDS011;45234;48.148;17.128;2023-06-22T07:39:38;14.10;;;6.00;;
24739;SDS011;45234;48.148;17.128;2023-06-22T07:42:04;11.95;;;5.32;;
24739;SDS011;45234;48.148;17.128;2023-06-22T07:44:32;10.88;;;6.22;;
24739;SDS011;45234;48.148;17.128;2023-06-22T07:46:58;14.23;;;5.60;;
24739;SDS011;45234;48.148;17.128;2023-06-22T07:49:27;13.98;;;6.38;;
24739;SDS011;45234;48.148;17.128;2023-06-22T07:51:55;11.52;;;5.88;;
24739;SDS011;45234;48.148;17.128;2023-06-22T07:54:22;10.90;;;5.63;;
24739;SDS011;45234;48.148;17.128;2023-06-22T07:56:49;9.15;;;5.57;;
24739;SDS011;45234;48.148;17.128;2023-06-22T07:59:16;14.43;;;5.50;;
24739;SDS011;45234;48.148;17.128;2023-06-22T08:01:43;6.38;;;4.35;;
24739;SDS011;45234;48.148;17.128;2023-06-22T08:04:10;9.20;;;5.78;;
24739;SDS011;45234;48.148;17.128;2023-06-22T08:06:37;11.75;;;5.40;;
24739;SDS011;45234;48.148;17.128;2023-06-22T08:09:04;13.05;;;5.35;;
24739;SDS011;45234;48.148;17.128;2023-06-22T08:11:31;10.40;;;5.75;;
24739;SDS011;45234;48.148;17.128;2023-06-22T08:13:58;11.95;;;5.55;;
24739;SDS011;45234;48.148;17.128;2023-06-22T08:16:25;13.15;;;6.00;;
24739;SDS011;45234;48.148;17.128;2023-06-22T08:18:52;10.98;;;5.70;;
24739;SDS011;45234;48.148;17.128;2023-06-22T08:44:00;8.07;;;5.10;;
24739;SDS011;45234;48.148;17.128;2023-06-22T08:51:53;10.95;;;5.25;;
24739;SDS011;45234;48.148;17.128;2023-06-22T08:54:33;12.00;;;5.13;;
24739;SDS011;45234;48.148;17.128;2023-06-22T08:57:00;6.47;;;4.25;;
24739;SDS011;45234;48.148;17.128;2023-06-22T08:59:28;11.82;;;4.78;;
24739;SDS011;45234;48.148;17.128;2023-06-22T09:01:55;8.75;;;4.78;;
24739;SDS011;45234;48.148;17.128;2023-06-22T09:04:23;17.02;;;5.30;;
24739;SDS011;45234;48.148;17.128;2023-06-22T09:06:51;11.88;;;5.35;;
24739;SDS011;45234;48.148;17.128;2023-06-22T09:09:21;12.45;;;4.55;;
24739;SDS011;45234;48.148;17.128;2023-06-22T09:11:48;12.55;;;4.82;;
24739;SDS011;45234;48.148;17.128;2023-06-22T09:14:15;8.38;;;4.85;;
24739;SDS011;45234;48.148;17.128;2023-06-22T09:16:42;9.55;;;5.20;;
24739;SDS011;45234;48.148;17.128;2023-06-22T09:19:09;7.95;;;4.32;;
24739;SDS011;45234;48.148;17.128;2023-06-22T09:21:36;11.70;;;4.40;;
24739;SDS011;45234;48.148;17.128;2023-06-22T09:24:04;9.10;;;4.57;;
24739;SDS011;45234;48.148;17.128;2023-06-22T09:26:31;15.93;;;4.80;;
24739;SDS011;45234;48.148;17.128;2023-06-22T09:28:59;9.40;;;4.63;;
24739;SDS011;45234;48.148;17.128;2023-06-22T09:31:26;9.45;;;4.75;;
24739;SDS011;45234;48.148;17.128;2023-06-22T09:33:53;9.13;;;4.53;;
24739;SDS011;45234;48.148;17.128;2023-06-22T09:36:20;9.10;;;4.82;;
24739;SDS011;45234;48.148;17.128;2023-06-22T09:38:50;12.07;;;5.20;;
24739;SDS011;45234;48.148;17.128;2023-06-22T09:41:21;16.93;;;4.67;;
24739;SDS011;45234;48.148;17.128;2023-06-22T09:43:48;14.68;;;5.00;;
24739;SDS011;45234;48.148;17.128;2023-06-22T09:46:16;14.20;;;4.18;;
24739;SDS011;45234;48.148;17.128;2023-06-22T09:48:43;9.95;;;4.18;;
24739;SDS011;45234;48.148;17.128;2023-06-22T09:51:11;8.95;;;4.50;;
24739;SDS011;45234;48.148;17.128;2023-06-22T09:53:42;7.30;;;3.55;;
24739;SDS011;45234;48.148;17.128;2023-06-22T09:56:11;8.73;;;4.75;;
24739;SDS011;45234;48.148;17.128;2023-06-22T09:58:41;11.25;;;4.85;;
24739;SDS011;45234;48.148;17.128;2023-06-22T10:01:11;15.30;;;4.85;;
24739;SDS011;45234;48.148;17.128;2023-06-22T10:03:40;11.00;;;4.68;;
24739;SDS011;45234;48.148;17.128;2023-06-22T10:06:07;9.88;;;4.68;;
24739;SDS011;45234;48.148;17.128;2023-06-22T10:08:35;12.45;;;4.15;;
24739;SDS011;45234;48.148;17.128;2023-06-22T10:11:03;8.55;;;4.95;;
24739;SDS011;45234;48.148;17.128;2023-06-22T10:13:30;10.15;;;4.72;;
24739;SDS011;45234;48.148;17.128;2023-06-22T10:15:57;8.63;;;4.50;;
24739;SDS011;45234;48.148;17.128;2023-06-22T10:18:24;12.55;;;4.97;;
24739;SDS011;45234;48.148;17.128;2023-06-22T10:20:51;11.13;;;4.68;;
24739;SDS011;45234;48.148;17.128;2023-06-22T10:23:21;7.90;;;4.78;;
24739;SDS011;45234;48.148;17.128;2023-06-22T10:25:48;9.93;;;4.55;;
24739;SDS011;45234;48.148;17.128;2023-06-22T10:28:15;13.57;;;4.80;;
24739;SDS011;45234;48.148;17.128;2023-06-22T10:30:42;8.77;;;4.30;;
24739;SDS011;45234;48.148;17.128;2023-06-22T10:33:10;9.95;;;4.35;;
24739;SDS011;45234;48.148;17.128;2023-06-22T10:35:38;8.82;;;3.95;;
24739;SDS011;45234;48.148;17.128;2023-06-22T10:38:05;9.00;;;4.65;;
24739;SDS011;45234;48.148;17.128;2023-06-22T10:40:32;10.70;;;4.68;;
24739;SDS011;45234;48.148;17.128;2023-06-22T10:42:59;10.18;;;4.45;;
24739;SDS011;45234;48.148;17.128;2023-06-22T10:45:26;11.27;;;4.72;;
24739;SDS011;45234;48.148;17.128;2023-06-22T10:47:54;10.32;;;4.40;;
24739;SDS011;45234;48.148;17.128;2023-06-22T10:50:21;9.52;;;4.35;;
24739;SDS011;45234;48.148;17.128;2023-06-22T10:52:50;12.32;;;4.43;;
24739;SDS011;45234;48.148;17.128;2023-06-22T10:55:17;13.82;;;4.75;;
24739;SDS011;45234;48.148;17.128;2023-06-22T10:57:44;9.18;;;4.20;;
24739;SDS011;45234;48.148;17.128;2023-06-22T11:00:13;8.55;;;3.97;;
24739;SDS011;45234;48.148;17.128;2023-06-22T11:02:41;7.68;;;4.20;;
24739;SDS011;45234;48.148;17.128;2023-06-22T11:05:09;7.80;;;3.97;;
24739;SDS011;45234;48.148;17.128;2023-06-22T11:07:37;9.90;;;4.25;;
24739;SDS011;45234;48.148;17.128;2023-06-22T11:10:10;8.32;;;4.30;;
24739;SDS011;45234;48.148;17.128;2023-06-22T11:12:38;14.77;;;4.30;;
24739;SDS011;45234;48.148;17.128;2023-06-22T11:15:05;8.70;;;4.57;;
24739;SDS011;45234;48.148;17.128;2023-06-22T11:17:33;13.00;;;3.90;;
24739;SDS011;45234;48.148;17.128;2023-06-22T11:20:00;8.35;;;4.20;;
24739;SDS011;45234;48.148;17.128;2023-06-22T11:22:30;9.25;;;4.63;;
24739;SDS011;45234;48.148;17.128;2023-06-22T11:24:59;11.27;;;5.57;;
24739;SDS011;45234;48.148;17.128;2023-06-22T11:27:28;11.52;;;5.07;;
24739;SDS011;45234;48.148;17.128;2023-06-22T11:29:55;11.60;;;4.70;;
24739;SDS011;45234;48.148;17.128;2023-06-22T11:32:22;10.35;;;4.43;;
24739;SDS011;45234;48.148;17.128;2023-06-22T11:34:50;10.57;;;5.22;;
24739;SDS011;45234;48.148;17.128;2023-06-22T11:37:17;11.38;;;4.55;;
24739;SDS011;45234;48.148;17.128;2023-06-22T11:39:44;12.05;;;4.70;;
24739;SDS011;45234;48.148;17.128;2023-06-22T11:42:18;13.40;;;5.45;;
24739;SDS011;45234;48.148;17.128;2023-06-22T11:44:45;15.13;;;6.50;;
24739;SDS011;45234;48.148;17.128;2023-06-22T11:47:12;11.95;;;5.75;;
24739;SDS011;45234;48.148;17.128;2023-06-22T11:49:39;13.57;;;7.10;;
24739;SDS011;45234;48.148;17.128;2023-06-22T11:52:07;12.45;;;7.13;;
24739;SDS011;45234;48.148;17.128;2023-06-22T11:54:33;12.27;;;7.05;;
24739;SDS011;45234;48.148;17.128;2023-06-22T11:57:00;12.20;;;6.40;;
24739;SDS011;45234;48.148;17.128;2023-06-22T11:59:27;11.10;;;5.72;;
24739;SDS011;45234;48.148;17.128;2023-06-22T12:01:55;10.75;;;6.75;;
24739;SDS011;45234;48.148;17.128;2023-06-22T12:04:24;15.85;;;7.78;;
24739;SDS011;45234;48.148;17.128;2023-06-22T12:06:51;15.70;;;7.35;;
24739;SDS011;45234;48.148;17.128;2023-06-22T12:09:18;11.77;;;7.28;;
24739;SDS011;45234;48.148;17.128;2023-06-22T12:11:45;12.38;;;8.23;;
24739;SDS011;45234;48.148;17.128;2023-06-22T12:14:11;15.57;;;8.50;;
24739;SDS011;45234;48.148;17.128;2023-06-22T12:16:38;18.13;;;6.43;;
24739;SDS011;45234;48.148;17.128;2023-06-22T12:19:05;11.85;;;5.53;;
24739;SDS011;45234;48.148;17.128;2023-06-22T12:21:32;12.20;;;6.00;;
24739;SDS011;45234;48.148;17.128;2023-06-22T12:23:59;11.15;;;5.65;;
24739;SDS011;45234;48.148;17.128;2023-06-22T12:26:26;10.45;;;5.40;;
24739;SDS011;45234;48.148;17.128;2023-06-22T12:28:53;14.25;;;6.53;;
24739;SDS011;45234;48.148;17.128;2023-06-22T12:31:19;10.95;;;5.22;;
24739;SDS011;45234;48.148;17.128;2023-06-22T12:33:46;15.57;;;6.28;;
24739;SDS011;45234;48.148;17.128;2023-06-22T12:36:14;15.93;;;5.88;;
24739;SDS011;45234;48.148;17.128;2023-06-22T12:38:42;15.48;;;6.43;;
24739;SDS011;45234;48.148;17.128;2023-06-22T12:41:09;19.30;;;6.07;;
24739;SDS011;45234;48.148;17.128;2023-06-22T12:43:36;14.63;;;6.10;;
24739;SDS011;45234;48.148;17.128;2023-06-22T12:46:03;13.05;;;6.43;;
24739;SDS011;45234;48.148;17.128;2023-06-22T12:48:30;10.40;;;5.47;;
24739;SDS011;45234;48.148;17.128;2023-06-22T12:50:57;11.73;;;5.28;;
24739;SDS011;45234;48.148;17.128;2023-06-22T12:53:26;19.63;;;5.65;;
24739;SDS011;45234;48.148;17.128;2023-06-22T12:55:53;13.38;;;5.65;;
24739;SDS011;45234;48.148;17.128;2023-06-22T12:58:20;10.02;;;5.25;;
24739;SDS011;45234;48.148;17.128;2023-06-22T13:00:47;9.48;;;4.93;;
24739;SDS011;45234;48.148;17.128;2023-06-22T13:03:14;9.35;;;4.53;;
24739;SDS011;45234;48.148;17.128;2023-06-22T13:05:41;8.65;;;5.15;;
24739;SDS011;45234;48.148;17.128;2023-06-22T13:08:08;17.27;;;5.18;;
24739;SDS011;45234;48.148;17.128;2023-06-22T13:10:38;8.27;;;5.32;;
24739;SDS011;45234;48.148;17.128;2023-06-22T13:13:05;11.18;;;5.85;;
24739;SDS011;45234;48.148;17.128;2023-06-22T13:15:32;11.82;;;5.65;;
24739;SDS011;45234;48.148;17.128;2023-06-22T13:17:59;13.73;;;5.30;;
24739;SDS011;45234;48.148;17.128;2023-06-22T13:20:26;10.25;;;5.20;;
24739;SDS011;45234;48.148;17.128;2023-06-22T13:22:54;9.18;;;4.95;;
24739;SDS011;45234;48.148;17.128;2023-06-22T13:25:21;10.85;;;5.50;;
24739;SDS011;45234;48.148;17.128;2023-06-22T13:27:52;13.95;;;5.47;;
24739;SDS011;45234;48.148;17.128;2023-06-22T13:30:19;9.55;;;4.68;;
24739;SDS011;45234;48.148;17.128;2023-06-22T13:32:48;9.75;;;5.43;;
24739;SDS011;45234;48.148;17.128;2023-06-22T13:35:15;14.45;;;6.32;;
24739;SDS011;45234;48.148;17.128;2023-06-22T13:37:42;13.63;;;6.57;;
24739;SDS011;45234;48.148;17.128;2023-06-22T13:40:09;18.77;;;7.00;;
24739;SDS011;45234;48.148;17.128;2023-06-22T13:42:36;9.93;;;5.57;;
24739;SDS011;45234;48.148;17.128;2023-06-22T13:45:03;10.75;;;5.78;;
24739;SDS011;45234;48.148;17.128;2023-06-22T13:47:33;16.98;;;5.88;;
24739;SDS011;45234;48.148;17.128;2023-06-22T13:50:00;9.68;;;5.30;;
24739;SDS011;45234;48.148;17.128;2023-06-22T13:52:29;14.10;;;5.22;;
24739;SDS011;45234;48.148;17.128;2023-06-22T13:54:56;19.48;;;5.68;;
24739;SDS011;45234;48.148;17.128;2023-06-22T13:57:23;12.15;;;4.80;;
24739;SDS011;45234;48.148;17.128;2023-06-22T13:59:49;8.18;;;5.50;;
24739;SDS011;45234;48.148;17.128;2023-06-22T14:02:16;15.13;;;5.72;;
24739;SDS011;45234;48.148;17.128;2023-06-22T14:04:43;10.20;;;5.55;;
24739;SDS011;45234;48.148;17.128;2023-06-22T14:07:13;13.38;;;5.57;;
24739;SDS011;45234;48.148;17.128;2023-06-22T14:09:40;11.13;;;5.10;;
24739;SDS011;45234;48.148;17.128;2023-06-22T14:12:07;13.82;;;5.05;;
24739;SDS011;45234;48.148;17.128;2023-06-22T14:14:37;13.13;;;5.95;;
24739;SDS011;45234;48.148;17.128;2023-06-22T14:17:04;10.25;;;6.13;;
24739;SDS011;45234;48.148;17.128;2023-06-22T14:19:31;10.45;;;5.60;;
24739;SDS011;45234;48.148;17.128;2023-06-22T14:21:58;10.45;;;5.60;;
24739;SDS011;45234;48.148;17.128;2023-06-22T14:24:25;14.63;;;5.55;;
24739;SDS011;45234;48.148;17.128;2023-06-22T14:26:55;9.32;;;5.32;;
24739;SDS011;45234;48.148;17.128;2023-06-22T14:29:23;13.70;;;6.40;;
24739;SDS011;45234;48.148;17.128;2023-06-22T14:31:50;10.80;;;5.88;;
24739;SDS011;45234;48.148;17.128;2023-06-22T14:34:17;13.77;;;5.60;;
24739;SDS011;45234;48.148;17.128;2023-06-22T14:36:44;11.32;;;4.85;;
24739;SDS011;45234;48.148;17.128;2023-06-22T14:39:11;11.23;;;6.20;;
24739;SDS011;45234;48.148;17.128;2023-06-22T14:41:38;15.05;;;6.03;;
24739;SDS011;45234;48.148;17.128;2023-06-22T14:44:05;13.75;;;5.88;;
24739;SDS011;45234;48.148;17.128;2023-06-22T14:46:32;13.02;;;6.20;;
24739;SDS011;45234;48.148;17.128;2023-06-22T14:48:59;17.30;;;6.85;;
24739;SDS011;45234;48.148;17.128;2023-06-22T14:51:26;13.43;;;5.80;;
24739;SDS011;45234;48.148;17.128;2023-06-22T14:53:53;13.57;;;5.75;;
24739;SDS011;45234;48.148;17.128;2023-06-22T14:56:20;11.13;;;5.72;;
24739;SDS011;45234;48.148;17.128;2023-06-22T14:58:47;15.68;;;5.72;;
24739;SDS011;45234;48.148;17.128;2023-06-22T15:01:16;13.20;;;5.90;;
24739;SDS011;45234;48.148;17.128;2023-06-22T15:03:44;12.52;;;5.50;;
24739;SDS011;45234;48.148;17.128;2023-06-22T15:06:11;18.30;;;6.25;;
24739;SDS011;45234;48.148;17.128;2023-06-22T15:08:39;13.27;;;6.28;;